METAR Data
IDs: Format: Raw Decoded Include TAF

Data at: 0640 UTC 01 Aug 2021

EHDL 010625Z AUTO 23007KT 170V270 3800 BR BKN003 OVC004 15/15 Q1008 YLO